Peninsula, Ohio
Current Conditions -  °F | °C
As of 9:54 PM on Saturday 22 Nov 2014 (Local Time) from KAKR Reporting Station
Light Rain Light Rain  
Wind Chill: 40°   Ceiling: 4300
Heat Index: 45°   Visibility: 10mi
Dew Point: 36°   Wind: 9mph
Humidity: 71%   Direction: 190°S
Pressure: 30.05"   Gusts: NA
Location:  41.24°N, 81.55°W
Report Text: KAKR 230254Z AUTO 19008KT 10SM -RA BKN043 BKN055 OVC070 07/02 A3005 RMK AO2 RAE0156B36 SLP182 P0001 60001 T00720022 56006
Loading
Personal Weather Stations






























Interactive Weather Map New forecast layout! Learn more

10-Day Weather Forecast

Advertisements
Track Severe Weather on mobile